sensor_id;sensor_type;location;lat;lon;timestamp;P1;durP1;ratioP1;P2;durP2;ratioP2
71148;SDS011;59072;42.144;25.200;2024-03-23T00:53:59;15.07;;;6.60;;
71148;SDS011;59072;42.144;25.200;2024-03-23T00:56:24;11.07;;;5.68;;
71148;SDS011;59072;42.144;25.200;2024-03-23T00:58:50;11.45;;;6.53;;
71148;SDS011;59072;42.144;25.200;2024-03-23T01:01:15;10.43;;;6.32;;
71148;SDS011;59072;42.144;25.200;2024-03-23T01:03:41;12.38;;;6.50;;
71148;SDS011;59072;42.144;25.200;2024-03-23T01:06:06;12.85;;;6.65;;
71148;SDS011;59072;42.144;25.200;2024-03-23T01:08:32;13.88;;;8.18;;
71148;SDS011;59072;42.144;25.200;2024-03-23T01:10:58;11.23;;;6.75;;
71148;SDS011;59072;42.144;25.200;2024-03-23T01:13:25;12.60;;;6.87;;
71148;SDS011;59072;42.144;25.200;2024-03-23T01:15:51;12.10;;;6.55;;
71148;SDS011;59072;42.144;25.200;2024-03-23T01:18:17;13.10;;;6.93;;
71148;SDS011;59072;42.144;25.200;2024-03-23T01:20:43;16.10;;;7.43;;
71148;SDS011;59072;42.144;25.200;2024-03-23T01:23:09;16.05;;;8.13;;
71148;SDS011;59072;42.144;25.200;2024-03-23T01:25:35;18.08;;;8.82;;
71148;SDS011;59072;42.144;25.200;2024-03-23T01:28:00;23.20;;;9.02;;
71148;SDS011;59072;42.144;25.200;2024-03-23T01:30:33;19.23;;;11.52;;
71148;SDS011;59072;42.144;25.200;2024-03-23T01:33:00;25.83;;;11.20;;
71148;SDS011;59072;42.144;25.200;2024-03-23T01:35:25;27.58;;;15.20;;
71148;SDS011;59072;42.144;25.200;2024-03-23T01:37:51;39.55;;;22.20;;
71148;SDS011;59072;42.144;25.200;2024-03-23T01:40:16;31.85;;;17.58;;
71148;SDS011;59072;42.144;25.200;2024-03-23T01:42:42;23.77;;;13.68;;
71148;SDS011;59072;42.144;25.200;2024-03-23T01:45:08;35.78;;;17.60;;
71148;SDS011;59072;42.144;25.200;2024-03-23T01:47:35;20.90;;;11.02;;
71148;SDS011;59072;42.144;25.200;2024-03-23T01:50:00;18.83;;;10.30;;
71148;SDS011;59072;42.144;25.200;2024-03-23T01:52:26;14.93;;;9.63;;
71148;SDS011;59072;42.144;25.200;2024-03-23T01:54:52;19.85;;;10.88;;
71148;SDS011;59072;42.144;25.200;2024-03-23T01:57:18;26.35;;;14.95;;
71148;SDS011;59072;42.144;25.200;2024-03-23T01:59:45;23.08;;;13.43;;
71148;SDS011;59072;42.144;25.200;2024-03-23T02:02:10;25.02;;;13.63;;
71148;SDS011;59072;42.144;25.200;2024-03-23T02:04:36;27.40;;;14.98;;
71148;SDS011;59072;42.144;25.200;2024-03-23T02:07:01;27.25;;;15.32;;
71148;SDS011;59072;42.144;25.200;2024-03-23T02:09:27;35.03;;;18.77;;
71148;SDS011;59072;42.144;25.200;2024-03-23T02:11:53;56.75;;;28.38;;
71148;SDS011;59072;42.144;25.200;2024-03-23T02:14:19;34.40;;;19.30;;
71148;SDS011;59072;42.144;25.200;2024-03-23T02:16:45;25.92;;;13.73;;
71148;SDS011;59072;42.144;25.200;2024-03-23T02:19:12;49.00;;;25.55;;
71148;SDS011;59072;42.144;25.200;2024-03-23T02:21:37;25.83;;;14.38;;
71148;SDS011;59072;42.144;25.200;2024-03-23T02:24:03;20.13;;;11.40;;
71148;SDS011;59072;42.144;25.200;2024-03-23T02:26:28;19.60;;;11.00;;
71148;SDS011;59072;42.144;25.200;2024-03-23T02:28:53;19.80;;;10.05;;
71148;SDS011;59072;42.144;25.200;2024-03-23T02:31:19;17.40;;;10.20;;
71148;SDS011;59072;42.144;25.200;2024-03-23T02:33:44;17.95;;;10.45;;
71148;SDS011;59072;42.144;25.200;2024-03-23T02:36:09;16.90;;;10.68;;
71148;SDS011;59072;42.144;25.200;2024-03-23T02:38:35;14.00;;;9.70;;
71148;SDS011;59072;42.144;25.200;2024-03-23T02:41:02;17.55;;;9.98;;
71148;SDS011;59072;42.144;25.200;2024-03-23T02:43:28;15.02;;;10.45;;
71148;SDS011;59072;42.144;25.200;2024-03-23T02:45:54;16.20;;;9.45;;
71148;SDS011;59072;42.144;25.200;2024-03-23T02:48:19;15.30;;;9.52;;
71148;SDS011;59072;42.144;25.200;2024-03-23T02:50:45;17.55;;;10.40;;
71148;SDS011;59072;42.144;25.200;2024-03-23T02:53:10;18.02;;;10.85;;
71148;SDS011;59072;42.144;25.200;2024-03-23T02:55:36;19.85;;;10.57;;
71148;SDS011;59072;42.144;25.200;2024-03-23T02:58:01;16.67;;;10.98;;
71148;SDS011;59072;42.144;25.200;2024-03-23T03:00:27;18.00;;;10.25;;
71148;SDS011;59072;42.144;25.200;2024-03-23T03:02:53;16.63;;;10.07;;
71148;SDS011;59072;42.144;25.200;2024-03-23T03:05:18;22.17;;;14.32;;
71148;SDS011;59072;42.144;25.200;2024-03-23T03:07:44;19.27;;;11.57;;
71148;SDS011;59072;42.144;25.200;2024-03-23T03:10:09;14.07;;;8.13;;
71148;SDS011;59072;42.144;25.200;2024-03-23T03:12:36;14.93;;;8.68;;
71148;SDS011;59072;42.144;25.200;2024-03-23T03:15:02;15.93;;;9.23;;
71148;SDS011;59072;42.144;25.200;2024-03-23T03:17:29;13.98;;;8.93;;
71148;SDS011;59072;42.144;25.200;2024-03-23T03:19:55;15.63;;;8.75;;
71148;SDS011;59072;42.144;25.200;2024-03-23T03:22:21;15.23;;;9.65;;
71148;SDS011;59072;42.144;25.200;2024-03-23T03:24:49;19.02;;;11.07;;
71148;SDS011;59072;42.144;25.200;2024-03-23T03:27:14;20.08;;;12.40;;
71148;SDS011;59072;42.144;25.200;2024-03-23T03:29:40;20.33;;;12.05;;
71148;SDS011;59072;42.144;25.200;2024-03-23T03:32:05;17.23;;;10.38;;
71148;SDS011;59072;42.144;25.200;2024-03-23T03:34:31;19.58;;;11.82;;
71148;SDS011;59072;42.144;25.200;2024-03-23T03:36:56;20.45;;;10.93;;
71148;SDS011;59072;42.144;25.200;2024-03-23T03:39:22;20.05;;;11.02;;
71148;SDS011;59072;42.144;25.200;2024-03-23T03:41:49;15.73;;;9.10;;
71148;SDS011;59072;42.144;25.200;2024-03-23T03:44:14;17.33;;;9.23;;
71148;SDS011;59072;42.144;25.200;2024-03-23T03:46:40;18.33;;;8.90;;
71148;SDS011;59072;42.144;25.200;2024-03-23T03:49:05;17.08;;;8.57;;
71148;SDS011;59072;42.144;25.200;2024-03-23T03:51:30;15.10;;;8.65;;
71148;SDS011;59072;42.144;25.200;2024-03-23T03:53:56;14.55;;;8.65;;
71148;SDS011;59072;42.144;25.200;2024-03-23T03:56:21;14.55;;;8.52;;
71148;SDS011;59072;42.144;25.200;2024-03-23T03:58:47;18.20;;;9.63;;
71148;SDS011;59072;42.144;25.200;2024-03-23T04:01:13;19.73;;;9.68;;
71148;SDS011;59072;42.144;25.200;2024-03-23T04:03:38;17.27;;;9.32;;
71148;SDS011;59072;42.144;25.200;2024-03-23T04:06:08;16.83;;;9.07;;
71148;SDS011;59072;42.144;25.200;2024-03-23T04:08:34;15.23;;;8.18;;
71148;SDS011;59072;42.144;25.200;2024-03-23T04:10:59;124.60;;;64.80;;
71148;SDS011;59072;42.144;25.200;2024-03-23T04:13:25;71.85;;;39.45;;
71148;SDS011;59072;42.144;25.200;2024-03-23T04:15:53;17.75;;;10.10;;
71148;SDS011;59072;42.144;25.200;2024-03-23T04:18:20;19.02;;;10.40;;
71148;SDS011;59072;42.144;25.200;2024-03-23T04:20:46;15.05;;;8.73;;
71148;SDS011;59072;42.144;25.200;2024-03-23T04:23:12;15.02;;;7.97;;
71148;SDS011;59072;42.144;25.200;2024-03-23T04:25:37;15.68;;;7.82;;
71148;SDS011;59072;42.144;25.200;2024-03-23T04:28:03;13.57;;;7.00;;
71148;SDS011;59072;42.144;25.200;2024-03-23T04:30:29;12.40;;;7.32;;
71148;SDS011;59072;42.144;25.200;2024-03-23T04:32:55;20.42;;;12.02;;
71148;SDS011;59072;42.144;25.200;2024-03-23T04:35:22;28.65;;;17.80;;
71148;SDS011;59072;42.144;25.200;2024-03-23T04:37:50;17.38;;;10.40;;
71148;SDS011;59072;42.144;25.200;2024-03-23T04:40:17;19.35;;;12.38;;
71148;SDS011;59072;42.144;25.200;2024-03-23T04:42:42;37.20;;;23.30;;
71148;SDS011;59072;42.144;25.200;2024-03-23T04:45:08;25.98;;;16.95;;
71148;SDS011;59072;42.144;25.200;2024-03-23T04:47:33;30.58;;;21.90;;
71148;SDS011;59072;42.144;25.200;2024-03-23T04:50:01;21.60;;;11.75;;
71148;SDS011;59072;42.144;25.200;2024-03-23T04:52:27;15.63;;;8.25;;
71148;SDS011;59072;42.144;25.200;2024-03-23T04:54:52;13.85;;;8.32;;
71148;SDS011;59072;42.144;25.200;2024-03-23T04:57:17;14.65;;;8.00;;
71148;SDS011;59072;42.144;25.200;2024-03-23T04:59:43;14.43;;;9.10;;
71148;SDS011;59072;42.144;25.200;2024-03-23T05:02:08;14.27;;;7.53;;
71148;SDS011;59072;42.144;25.200;2024-03-23T05:04:35;14.85;;;7.55;;
71148;SDS011;59072;42.144;25.200;2024-03-23T05:07:01;15.17;;;7.83;;
71148;SDS011;59072;42.144;25.200;2024-03-23T05:09:27;13.48;;;7.72;;
71148;SDS011;59072;42.144;25.200;2024-03-23T05:11:55;15.38;;;8.30;;
71148;SDS011;59072;42.144;25.200;2024-03-23T05:14:20;15.98;;;8.23;;
71148;SDS011;59072;42.144;25.200;2024-03-23T05:16:46;13.65;;;8.52;;
71148;SDS011;59072;42.144;25.200;2024-03-23T05:19:11;15.23;;;8.55;;
71148;SDS011;59072;42.144;25.200;2024-03-23T05:21:36;19.55;;;12.73;;
71148;SDS011;59072;42.144;25.200;2024-03-23T05:24:02;39.60;;;16.20;;
71148;SDS011;59072;42.144;25.200;2024-03-23T05:26:28;44.53;;;30.67;;
71148;SDS011;59072;42.144;25.200;2024-03-23T05:28:53;44.83;;;30.52;;
71148;SDS011;59072;42.144;25.200;2024-03-23T05:31:25;20.50;;;12.40;;
71148;SDS011;59072;42.144;25.200;2024-03-23T05:33:52;18.83;;;10.00;;
71148;SDS011;59072;42.144;25.200;2024-03-23T05:36:18;15.63;;;7.95;;
71148;SDS011;59072;42.144;25.200;2024-03-23T05:38:43;14.77;;;8.52;;
71148;SDS011;59072;42.144;25.200;2024-03-23T05:41:09;13.40;;;8.32;;
71148;SDS011;59072;42.144;25.200;2024-03-23T05:43:35;23.40;;;14.55;;
71148;SDS011;59072;42.144;25.200;2024-03-23T05:46:00;26.40;;;16.20;;
71148;SDS011;59072;42.144;25.200;2024-03-23T05:48:35;26.02;;;17.88;;
71148;SDS011;59072;42.144;25.200;2024-03-23T05:51:01;28.25;;;16.10;;
71148;SDS011;59072;42.144;25.200;2024-03-23T05:53:27;17.58;;;9.60;;
71148;SDS011;59072;42.144;25.200;2024-03-23T05:56:02;15.85;;;9.25;;
71148;SDS011;59072;42.144;25.200;2024-03-23T05:58:29;14.82;;;8.25;;
71148;SDS011;59072;42.144;25.200;2024-03-23T06:00:57;14.10;;;8.65;;
71148;SDS011;59072;42.144;25.200;2024-03-23T06:03:27;16.98;;;8.80;;
71148;SDS011;59072;42.144;25.200;2024-03-23T06:08:21;15.93;;;8.88;;
71148;SDS011;59072;42.144;25.200;2024-03-23T06:10:47;14.80;;;8.35;;
71148;SDS011;59072;42.144;25.200;2024-03-23T06:13:12;14.40;;;8.00;;
71148;SDS011;59072;42.144;25.200;2024-03-23T06:15:38;16.27;;;11.18;;
71148;SDS011;59072;42.144;25.200;2024-03-23T06:18:04;14.30;;;9.02;;
71148;SDS011;59072;42.144;25.200;2024-03-23T06:20:30;16.95;;;8.70;;
71148;SDS011;59072;42.144;25.200;2024-03-23T06:22:56;15.32;;;9.07;;
71148;SDS011;59072;42.144;25.200;2024-03-23T06:25:21;14.82;;;9.13;;
71148;SDS011;59072;42.144;25.200;2024-03-23T06:27:47;13.82;;;8.13;;
71148;SDS011;59072;42.144;25.200;2024-03-23T06:30:12;15.32;;;8.82;;
71148;SDS011;59072;42.144;25.200;2024-03-23T06:32:38;18.13;;;8.38;;
71148;SDS011;59072;42.144;25.200;2024-03-23T06:35:03;12.88;;;7.47;;
71148;SDS011;59072;42.144;25.200;2024-03-23T06:37:33;12.98;;;8.45;;
71148;SDS011;59072;42.144;25.200;2024-03-23T06:40:02;13.20;;;8.02;;
71148;SDS011;59072;42.144;25.200;2024-03-23T06:42:29;12.70;;;7.30;;
71148;SDS011;59072;42.144;25.200;2024-03-23T06:44:55;13.35;;;7.43;;
71148;SDS011;59072;42.144;25.200;2024-03-23T06:47:20;14.93;;;8.07;;
71148;SDS011;59072;42.144;25.200;2024-03-23T06:49:45;14.85;;;7.38;;
71148;SDS011;59072;42.144;25.200;2024-03-23T06:52:11;14.15;;;7.70;;
71148;SDS011;59072;42.144;25.200;2024-03-23T06:54:36;12.88;;;7.70;;
71148;SDS011;59072;42.144;25.200;2024-03-23T06:57:02;14.52;;;7.57;;
71148;SDS011;59072;42.144;25.200;2024-03-23T06:59:28;16.02;;;7.60;;
71148;SDS011;59072;42.144;25.200;2024-03-23T07:01:53;11.40;;;7.10;;
71148;SDS011;59072;42.144;25.200;2024-03-23T07:04:18;12.75;;;7.45;;
71148;SDS011;59072;42.144;25.200;2024-03-23T07:06:44;12.70;;;7.80;;
71148;SDS011;59072;42.144;25.200;2024-03-23T07:09:10;15.80;;;7.65;;
71148;SDS011;59072;42.144;25.200;2024-03-23T07:11:36;13.25;;;7.72;;
71148;SDS011;59072;42.144;25.200;2024-03-23T07:14:02;12.63;;;7.30;;
71148;SDS011;59072;42.144;25.200;2024-03-23T07:16:28;13.25;;;7.43;;
71148;SDS011;59072;42.144;25.200;2024-03-23T07:18:53;14.02;;;7.70;;
71148;SDS011;59072;42.144;25.200;2024-03-23T07:21:19;13.57;;;8.02;;
71148;SDS011;59072;42.144;25.200;2024-03-23T07:23:44;11.68;;;6.78;;
71148;SDS011;59072;42.144;25.200;2024-03-23T07:26:10;12.15;;;7.40;;
71148;SDS011;59072;42.144;25.200;2024-03-23T07:28:37;13.48;;;6.97;;
71148;SDS011;59072;42.144;25.200;2024-03-23T07:31:06;12.32;;;7.10;;
71148;SDS011;59072;42.144;25.200;2024-03-23T07:33:36;11.25;;;6.93;;
71148;SDS011;59072;42.144;25.200;2024-03-23T07:36:03;11.30;;;8.18;;
71148;SDS011;59072;42.144;25.200;2024-03-23T07:38:29;12.35;;;7.60;;
71148;SDS011;59072;42.144;25.200;2024-03-23T07:43:29;11.45;;;7.25;;
71148;SDS011;59072;42.144;25.200;2024-03-23T07:45:54;12.18;;;7.15;;
71148;SDS011;59072;42.144;25.200;2024-03-23T07:48:23;12.30;;;6.78;;
71148;SDS011;59072;42.144;25.200;2024-03-23T07:53:36;11.27;;;6.88;;
71148;SDS011;59072;42.144;25.200;2024-03-23T07:56:03;10.05;;;6.82;;
71148;SDS011;59072;42.144;25.200;2024-03-23T07:58:31;13.00;;;7.63;;
71148;SDS011;59072;42.144;25.200;2024-03-23T08:00:56;12.05;;;6.72;;
71148;SDS011;59072;42.144;25.200;2024-03-23T08:03:39;13.38;;;6.32;;
71148;SDS011;59072;42.144;25.200;2024-03-23T08:06:16;10.88;;;7.30;;
71148;SDS011;59072;42.144;25.200;2024-03-23T08:08:45;11.77;;;6.53;;
71148;SDS011;59072;42.144;25.200;2024-03-23T08:11:11;13.50;;;6.55;;
71148;SDS011;59072;42.144;25.200;2024-03-23T08:13:40;9.43;;;6.22;;
71148;SDS011;59072;42.144;25.200;2024-03-23T08:16:07;11.40;;;6.82;;
71148;SDS011;59072;42.144;25.200;2024-03-23T08:18:33;11.48;;;6.97;;
71148;SDS011;59072;42.144;25.200;2024-03-23T08:21:02;10.95;;;6.70;;
71148;SDS011;59072;42.144;25.200;2024-03-23T08:23:35;13.52;;;8.48;;
71148;SDS011;59072;42.144;25.200;2024-03-23T08:26:08;11.98;;;7.80;;
71148;SDS011;59072;42.144;25.200;2024-03-23T08:28:35;11.93;;;7.32;;
71148;SDS011;59072;42.144;25.200;2024-03-23T08:31:01;10.93;;;7.05;;
71148;SDS011;59072;42.144;25.200;2024-03-23T08:33:30;13.15;;;7.18;;
71148;SDS011;59072;42.144;25.200;2024-03-23T08:35:56;12.63;;;7.63;;
71148;SDS011;59072;42.144;25.200;2024-03-23T08:38:23;11.25;;;7.68;;
71148;SDS011;59072;42.144;25.200;2024-03-23T08:40:56;11.85;;;7.40;;
71148;SDS011;59072;42.144;25.200;2024-03-23T08:43:25;11.02;;;7.82;;
71148;SDS011;59072;42.144;25.200;2024-03-23T08:45:51;11.70;;;7.88;;
71148;SDS011;59072;42.144;25.200;2024-03-23T08:48:18;11.65;;;7.65;;
71148;SDS011;59072;42.144;25.200;2024-03-23T08:50:45;13.65;;;7.90;;
71148;SDS011;59072;42.144;25.200;2024-03-23T08:53:11;10.27;;;7.22;;
71148;SDS011;59072;42.144;25.200;2024-03-23T08:55:37;14.18;;;8.00;;
71148;SDS011;59072;42.144;25.200;2024-03-23T08:58:02;13.07;;;8.00;;
71148;SDS011;59072;42.144;25.200;2024-03-23T09:00:29;11.50;;;8.00;;
71148;SDS011;59072;42.144;25.200;2024-03-23T09:02:54;13.30;;;7.47;;
71148;SDS011;59072;42.144;25.200;2024-03-23T09:05:20;11.13;;;7.32;;
71148;SDS011;59072;42.144;25.200;2024-03-23T09:07:46;12.20;;;7.45;;
71148;SDS011;59072;42.144;25.200;2024-03-23T09:10:11;12.48;;;7.50;;
71148;SDS011;59072;42.144;25.200;2024-03-23T09:12:36;14.43;;;7.60;;
71148;SDS011;59072;42.144;25.200;2024-03-23T09:15:02;26.88;;;19.05;;
71148;SDS011;59072;42.144;25.200;2024-03-23T09:17:28;11.63;;;7.28;;
71148;SDS011;59072;42.144;25.200;2024-03-23T09:19:53;13.32;;;8.05;;
71148;SDS011;59072;42.144;25.200;2024-03-23T09:22:18;11.70;;;8.25;;
71148;SDS011;59072;42.144;25.200;2024-03-23T09:24:44;13.02;;;7.68;;
71148;SDS011;59072;42.144;25.200;2024-03-23T09:27:09;11.40;;;6.57;;
71148;SDS011;59072;42.144;25.200;2024-03-23T09:29:35;10.45;;;6.82;;
71148;SDS011;59072;42.144;25.200;2024-03-23T09:32:00;10.90;;;7.25;;
71148;SDS011;59072;42.144;25.200;2024-03-23T09:34:25;11.13;;;7.40;;
71148;SDS011;59072;42.144;25.200;2024-03-23T09:36:51;11.15;;;7.53;;
71148;SDS011;59072;42.144;25.200;2024-03-23T09:39:17;9.90;;;6.97;;
71148;SDS011;59072;42.144;25.200;2024-03-23T09:41:43;9.93;;;6.63;;
71148;SDS011;59072;42.144;25.200;2024-03-23T09:44:08;9.82;;;5.93;;
71148;SDS011;59072;42.144;25.200;2024-03-23T09:46:34;9.63;;;5.93;;
71148;SDS011;59072;42.144;25.200;2024-03-23T09:49:01;10.05;;;6.55;;
71148;SDS011;59072;42.144;25.200;2024-03-23T09:53:54;9.57;;;6.25;;
71148;SDS011;59072;42.144;25.200;2024-03-23T09:56:20;11.25;;;5.82;;
71148;SDS011;59072;42.144;25.200;2024-03-23T09:58:46;8.95;;;5.97;;
71148;SDS011;59072;42.144;25.200;2024-03-23T10:01:12;10.43;;;6.25;;
71148;SDS011;59072;42.144;25.200;2024-03-23T10:03:43;8.70;;;5.57;;
71148;SDS011;59072;42.144;25.200;2024-03-23T10:06:12;10.02;;;6.50;;
71148;SDS011;59072;42.144;25.200;2024-03-23T10:08:38;8.48;;;5.70;;
71148;SDS011;59072;42.144;25.200;2024-03-23T10:11:16;9.55;;;5.63;;
71148;SDS011;59072;42.144;25.200;2024-03-23T10:13:42;9.20;;;5.05;;
71148;SDS011;59072;42.144;25.200;2024-03-23T10:16:09;8.27;;;5.00;;
71148;SDS011;59072;42.144;25.200;2024-03-23T10:18:38;9.88;;;5.85;;
71148;SDS011;59072;42.144;25.200;2024-03-23T10:21:08;7.13;;;4.35;;
71148;SDS011;59072;42.144;25.200;2024-03-23T10:23:36;8.45;;;5.35;;
71148;SDS011;59072;42.144;25.200;2024-03-23T10:28:53;8.90;;;5.70;;
71148;SDS011;59072;42.144;25.200;2024-03-23T10:31:28;8.73;;;5.35;;
71148;SDS011;59072;42.144;25.200;2024-03-23T10:33:55;8.40;;;5.80;;
71148;SDS011;59072;42.144;25.200;2024-03-23T10:36:21;8.45;;;4.93;;
71148;SDS011;59072;42.144;25.200;2024-03-23T10:38:47;8.40;;;5.05;;
71148;SDS011;59072;42.144;25.200;2024-03-23T10:41:15;8.15;;;5.25;;
71148;SDS011;59072;42.144;25.200;2024-03-23T10:43:40;8.13;;;4.97;;
71148;SDS011;59072;42.144;25.200;2024-03-23T10:46:07;8.73;;;4.82;;
71148;SDS011;59072;42.144;25.200;2024-03-23T10:48:34;8.07;;;4.50;;
71148;SDS011;59072;42.144;25.200;2024-03-23T10:50:59;13.63;;;5.15;;
71148;SDS011;59072;42.144;25.200;2024-03-23T10:53:26;6.78;;;4.20;;
71148;SDS011;59072;42.144;25.200;2024-03-23T10:55:53;9.50;;;4.13;;
71148;SDS011;59072;42.144;25.200;2024-03-23T10:58:24;6.15;;;3.10;;
71148;SDS011;59072;42.144;25.200;2024-03-23T11:01:12;6.43;;;3.15;;
71148;SDS011;59072;42.144;25.200;2024-03-23T11:03:38;4.88;;;2.50;;
71148;SDS011;59072;42.144;25.200;2024-03-23T11:06:05;5.40;;;3.00;;
71148;SDS011;59072;42.144;25.200;2024-03-23T11:08:33;8.05;;;3.75;;
71148;SDS011;59072;42.144;25.200;2024-03-23T11:11:11;4.22;;;2.42;;
71148;SDS011;59072;42.144;25.200;2024-03-23T11:13:43;4.65;;;2.30;;
71148;SDS011;59072;42.144;25.200;2024-03-23T11:22:01;5.15;;;2.40;;
71148;SDS011;59072;42.144;25.200;2024-03-23T11:24:28;5.43;;;2.40;;
71148;SDS011;59072;42.144;25.200;2024-03-23T11:26:53;4.20;;;2.28;;
71148;SDS011;59072;42.144;25.200;2024-03-23T11:29:19;5.90;;;2.58;;
71148;SDS011;59072;42.144;25.200;2024-03-23T11:31:48;5.05;;;2.40;;
71148;SDS011;59072;42.144;25.200;2024-03-23T11:34:17;5.00;;;2.40;;
71148;SDS011;59072;42.144;25.200;2024-03-23T11:36:44;5.45;;;2.78;;
71148;SDS011;59072;42.144;25.200;2024-03-23T11:39:16;6.10;;;2.75;;
71148;SDS011;59072;42.144;25.200;2024-03-23T11:41:46;4.80;;;2.72;;
71148;SDS011;59072;42.144;25.200;2024-03-23T11:46:51;7.80;;;3.45;;
71148;SDS011;59072;42.144;25.200;2024-03-23T11:51:52;4.70;;;2.97;;
71148;SDS011;59072;42.144;25.200;2024-03-23T11:54:25;5.00;;;2.93;;
71148;SDS011;59072;42.144;25.200;2024-03-23T12:02:07;4.93;;;3.13;;
71148;SDS011;59072;42.144;25.200;2024-03-23T12:04:33;5.28;;;3.35;;
71148;SDS011;59072;42.144;25.200;2024-03-23T12:07:17;4.90;;;2.83;;
71148;SDS011;59072;42.144;25.200;2024-03-23T12:09:44;6.07;;;3.10;;
71148;SDS011;59072;42.144;25.200;2024-03-23T12:12:14;6.85;;;3.28;;
71148;SDS011;59072;42.144;25.200;2024-03-23T12:14:42;5.50;;;2.97;;
71148;SDS011;59072;42.144;25.200;2024-03-23T12:17:14;6.72;;;3.15;;
71148;SDS011;59072;42.144;25.200;2024-03-23T12:19:40;6.28;;;3.20;;
71148;SDS011;59072;42.144;25.200;2024-03-23T12:22:10;5.78;;;3.20;;
71148;SDS011;59072;42.144;25.200;2024-03-23T12:24:35;6.00;;;3.30;;
71148;SDS011;59072;42.144;25.200;2024-03-23T12:27:04;6.07;;;3.40;;
71148;SDS011;59072;42.144;25.200;2024-03-23T12:29:30;6.05;;;3.25;;
71148;SDS011;59072;42.144;25.200;2024-03-23T12:31:59;6.10;;;3.72;;
71148;SDS011;59072;42.144;25.200;2024-03-23T12:34:25;5.88;;;3.28;;
71148;SDS011;59072;42.144;25.200;2024-03-23T12:36:51;6.30;;;3.15;;
71148;SDS011;59072;42.144;25.200;2024-03-23T12:39:16;6.20;;;3.30;;
71148;SDS011;59072;42.144;25.200;2024-03-23T12:41:41;6.03;;;3.17;;
71148;SDS011;59072;42.144;25.200;2024-03-23T12:44:07;5.70;;;3.40;;
71148;SDS011;59072;42.144;25.200;2024-03-23T12:46:34;5.32;;;3.33;;
71148;SDS011;59072;42.144;25.200;2024-03-23T12:49:00;4.70;;;3.20;;
71148;SDS011;59072;42.144;25.200;2024-03-23T12:51:25;4.75;;;2.80;;
71148;SDS011;59072;42.144;25.200;2024-03-23T12:53:50;8.30;;;3.00;;
71148;SDS011;59072;42.144;25.200;2024-03-23T12:56:16;6.03;;;3.55;;
71148;SDS011;59072;42.144;25.200;2024-03-23T12:58:42;7.65;;;3.30;;
71148;SDS011;59072;42.144;25.200;2024-03-23T13:01:07;5.15;;;3.05;;
71148;SDS011;59072;42.144;25.200;2024-03-23T13:03:32;8.40;;;3.10;;
71148;SDS011;59072;42.144;25.200;2024-03-23T13:05:58;6.07;;;3.17;;
71148;SDS011;59072;42.144;25.200;2024-03-23T13:08:23;7.85;;;3.05;;
71148;SDS011;59072;42.144;25.200;2024-03-23T13:10:51;5.88;;;2.85;;
71148;SDS011;59072;42.144;25.200;2024-03-23T13:13:17;5.53;;;2.80;;
71148;SDS011;59072;42.144;25.200;2024-03-23T13:15:42;5.63;;;2.78;;
71148;SDS011;59072;42.144;25.200;2024-03-23T13:18:15;5.45;;;2.60;;
71148;SDS011;59072;42.144;25.200;2024-03-23T13:20:40;6.68;;;2.70;;
71148;SDS011;59072;42.144;25.200;2024-03-23T13:23:05;5.22;;;3.00;;
71148;SDS011;59072;42.144;25.200;2024-03-23T13:25:31;7.63;;;2.70;;
71148;SDS011;59072;42.144;25.200;2024-03-23T13:27:56;5.40;;;2.47;;
71148;SDS011;59072;42.144;25.200;2024-03-23T13:30:21;6.00;;;2.58;;
71148;SDS011;59072;42.144;25.200;2024-03-23T13:32:47;6.15;;;2.92;;
71148;SDS011;59072;42.144;25.200;2024-03-23T13:35:12;6.60;;;2.55;;
71148;SDS011;59072;42.144;25.200;2024-03-23T13:37:37;5.78;;;3.05;;
71148;SDS011;59072;42.144;25.200;2024-03-23T13:40:03;8.70;;;4.35;;
71148;SDS011;59072;42.144;25.200;2024-03-23T13:42:29;5.43;;;3.22;;
71148;SDS011;59072;42.144;25.200;2024-03-23T13:44:54;4.88;;;2.90;;
71148;SDS011;59072;42.144;25.200;2024-03-23T13:47:20;4.72;;;2.42;;
71148;SDS011;59072;42.144;25.200;2024-03-23T13:49:45;5.05;;;2.47;;
71148;SDS011;59072;42.144;25.200;2024-03-23T13:52:11;5.85;;;2.75;;
71148;SDS011;59072;42.144;25.200;2024-03-23T13:54:36;5.88;;;3.13;;
71148;SDS011;59072;42.144;25.200;2024-03-23T13:57:02;5.22;;;2.60;;
71148;SDS011;59072;42.144;25.200;2024-03-23T13:59:28;4.57;;;2.50;;
71148;SDS011;59072;42.144;25.200;2024-03-23T14:01:54;3.85;;;2.35;;
71148;SDS011;59072;42.144;25.200;2024-03-23T14:04:20;5.05;;;2.10;;
71148;SDS011;59072;42.144;25.200;2024-03-23T14:06:45;5.20;;;2.60;;
71148;SDS011;59072;42.144;25.200;2024-03-23T14:09:11;5.53;;;2.70;;
71148;SDS011;59072;42.144;25.200;2024-03-23T14:11:38;6.63;;;2.80;;
71148;SDS011;59072;42.144;25.200;2024-03-23T14:14:03;6.97;;;3.80;;
71148;SDS011;59072;42.144;25.200;2024-03-23T14:16:32;4.65;;;2.70;;
71148;SDS011;59072;42.144;25.200;2024-03-23T14:18:58;5.82;;;2.60;;
71148;SDS011;59072;42.144;25.200;2024-03-23T14:21:24;4.80;;;2.22;;
71148;SDS011;59072;42.144;25.200;2024-03-23T14:23:49;5.28;;;2.20;;
71148;SDS011;59072;42.144;25.200;2024-03-23T14:26:15;6.43;;;2.50;;
71148;SDS011;59072;42.144;25.200;2024-03-23T14:28:40;4.68;;;2.33;;
71148;SDS011;59072;42.144;25.200;2024-03-23T14:31:06;5.35;;;2.58;;
71148;SDS011;59072;42.144;25.200;2024-03-23T14:33:38;5.47;;;2.05;;
71148;SDS011;59072;42.144;25.200;2024-03-23T14:36:12;3.33;;;2.15;;
71148;SDS011;59072;42.144;25.200;2024-03-23T14:38:38;4.88;;;2.30;;
71148;SDS011;59072;42.144;25.200;2024-03-23T14:41:03;4.15;;;2.72;;
71148;SDS011;59072;42.144;25.200;2024-03-23T14:43:29;6.50;;;2.78;;
71148;SDS011;59072;42.144;25.200;2024-03-23T14:46:14;5.18;;;2.78;;
71148;SDS011;59072;42.144;25.200;2024-03-23T14:48:41;4.75;;;2.67;;
71148;SDS011;59072;42.144;25.200;2024-03-23T14:51:08;3.35;;;2.00;;
71148;SDS011;59072;42.144;25.200;2024-03-23T14:53:37;5.10;;;2.08;;
71148;SDS011;59072;42.144;25.200;2024-03-23T14:56:05;4.45;;;2.50;;
71148;SDS011;59072;42.144;25.200;2024-03-23T14:58:33;6.93;;;2.75;;
71148;SDS011;59072;42.144;25.200;2024-03-23T15:01:02;5.65;;;2.38;;
71148;SDS011;59072;42.144;25.200;2024-03-23T15:03:28;6.63;;;2.45;;
71148;SDS011;59072;42.144;25.200;2024-03-23T15:05:54;6.03;;;2.92;;
71148;SDS011;59072;42.144;25.200;2024-03-23T15:08:20;3.72;;;2.13;;
71148;SDS011;59072;42.144;25.200;2024-03-23T15:10:46;5.20;;;2.38;;
71148;SDS011;59072;42.144;25.200;2024-03-23T15:13:11;5.28;;;2.45;;
71148;SDS011;59072;42.144;25.200;2024-03-23T15:15:43;6.45;;;2.50;;
71148;SDS011;59072;42.144;25.200;2024-03-23T15:18:12;4.13;;;2.42;;
71148;SDS011;59072;42.144;25.200;2024-03-23T15:20:40;7.10;;;3.30;;
71148;SDS011;59072;42.144;25.200;2024-03-23T15:23:16;4.38;;;2.30;;
71148;SDS011;59072;42.144;25.200;2024-03-23T15:25:42;5.95;;;2.97;;
71148;SDS011;59072;42.144;25.200;2024-03-23T15:28:07;6.30;;;3.10;;
71148;SDS011;59072;42.144;25.200;2024-03-23T15:30:33;5.43;;;2.63;;
71148;SDS011;59072;42.144;25.200;2024-03-23T15:32:58;4.90;;;2.55;;
71148;SDS011;59072;42.144;25.200;2024-03-23T15:35:24;6.55;;;2.92;;
71148;SDS011;59072;42.144;25.200;2024-03-23T15:37:50;10.10;;;3.20;;
71148;SDS011;59072;42.144;25.200;2024-03-23T15:40:15;7.70;;;2.88;;
71148;SDS011;59072;42.144;25.200;2024-03-23T15:42:41;10.77;;;3.45;;